リュブリャナ の空港の天気 - METARとTAF

リュブリャナ空港 ( LJLJ / LJU ) - スロベニア リュブリャナ
飛行場実況気象(Metar)
観測時間01/16 19:00 CET (01/16 18:00 UTC)
風向・風速不定 1m/s
視程5000m
天気現象地霧 もや
なし
気温-3℃
湿度93%
気圧1022hPa
METARLJLJ 161800Z VRB02KT 5000 1500SE MIFG BR NSC M03/M04 Q1022 NOSIG
過去の天気等 Google飛行場航空写真 Wunderground天気予報

過去48時間のMETAR

飛行場予報(TAF)
発表時間: 1/16 18:00 CET (1/16 17:00 UTC)
予報対象時間: 16日19時 CET ~ 17日19時 CET
風向・風速西北西 2m/s
視程7000m
少しの雲 雲底高度 60m
16日19時 CET ~ 16日23時 CET に一時的に
視程3500m
天気現象部分霧 もや
全天の8割程度の雲 雲底高度 60m
16日22時 CET ~ 16日24時 CET に徐々に
視程350m
天気現象氷霧
全天を覆う雲 鉛直視程 30m
17日11時 CET ~ 17日13時 CET に徐々に
視程3500m
天気現象散在した霧 もや
全天の8割程度の雲 雲底高度 90m
17日13時 CET ~ 17日15時 CET に徐々に
視程10km以上
天気現象運行に影響にある天気現象が終了
少しの雲 雲底高度 150m
TAF LJLJ 161700Z 1618/1718 30003KT 7000 FEW002
TEMPO 1618/1622 3500 PRFG BR BKN002
BECMG 1621/1623 0350 FZFG VV001
BECMG 1710/1712 3500 BCFG BR BKN003
BECMG 1712/1714 9999 NSW FEW005